Time;durP1;ratioP1;P1;durP2;ratioP2;P2;SDS_P1;SDS_P2;PMS_P1;PMS_P2;Temp;Humidity;BMP_temperature;BMP_pressure;BME280_temperature;BME280_humidity;BME280_pressure;Samples;Min_cycle;Max_cycle;Signal;HPM_P1;HPM_P2
2023/01/01 00:01:44;;;;;;;21.10;7.93;;;16.70;90.20;;;;;;5066318;28;20386;-91
2023/01/01 00:04:12;;;;;;;19.77;8.13;;;16.70;90.20;;;;;;5053068;28;20017;-92
2023/01/01 00:06:38;;;;;;;22.45;8.48;;;16.70;90.20;;;;;;5034626;28;20033;-91
2023/01/01 00:11:47;;;;;;;21.80;8.85;;;16.70;90.20;;;;;;5034723;28;20063;-91
2023/01/01 00:14:13;;;;;;;17.15;7.47;;;16.70;90.20;;;;;;5033227;28;20569;-91
2023/01/01 00:16:39;;;;;;;15.13;6.72;;;16.70;90.20;;;;;;5060332;28;20455;-89
2023/01/01 00:19:04;;;;;;;16.73;7.28;;;16.70;90.50;;;;;;5064201;28;20028;-90
2023/01/01 00:21:30;;;;;;;19.27;7.28;;;16.70;90.20;;;;;;5052647;28;20036;-91
2023/01/01 00:23:55;;;;;;;19.63;7.00;;;16.70;90.20;;;;;;5052675;28;20066;-92
2023/01/01 00:26:21;;;;;;;19.05;7.70;;;16.70;90.20;;;;;;5052619;28;20028;-92
2023/01/01 00:28:47;;;;;;;18.27;7.80;;;16.70;90.20;;;;;;5052514;28;20111;-91
2023/01/01 00:31:18;;;;;;;17.42;7.25;;;16.70;90.20;;;;;;5069093;28;20078;-88
2023/01/01 00:33:44;;;;;;;17.48;6.47;;;16.70;90.20;;;;;;5072751;28;20028;-89
2023/01/01 00:36:13;;;;;;;18.42;6.68;;;16.70;90.20;;;;;;5064081;28;20025;-90
2023/01/01 00:38:39;;;;;;;15.55;7.50;;;16.70;90.20;;;;;;5056585;28;20016;-89
2023/01/01 00:41:06;;;;;;;17.30;6.90;;;16.60;90.20;;;;;;5055901;28;20379;-91
2023/01/01 00:43:32;;;;;;;20.98;7.75;;;16.70;90.50;;;;;;5052427;28;20110;-89
2023/01/01 00:45:57;;;;;;;24.42;7.40;;;16.70;90.20;;;;;;5052502;28;20072;-89
2023/01/01 00:48:23;;;;;;;17.00;6.28;;;16.70;90.20;;;;;;5054889;28;20025;-90
2023/01/01 00:50:50;;;;;;;14.30;6.53;;;16.70;90.50;;;;;;5063621;28;20427;-89
2023/01/01 00:53:17;;;;;;;16.48;6.50;;;16.60;90.20;;;;;;5072269;28;20036;-90
2023/01/01 00:55:43;;;;;;;18.40;6.93;;;16.60;90.50;;;;;;5069194;28;20039;-90
2023/01/01 00:58:10;;;;;;;14.70;6.93;;;16.60;90.20;;;;;;5032355;28;20033;-89
2023/01/01 01:00:36;;;;;;;17.55;7.00;;;16.60;90.20;;;;;;5032000;28;20033;-89
2023/01/01 01:03:02;;;;;;;16.30;6.57;;;16.60;90.20;;;;;;5032111;28;20017;-88
2023/01/01 01:05:27;;;;;;;15.50;6.95;;;16.60;90.20;;;;;;5043816;28;20134;-89
2023/01/01 01:07:53;;;;;;;14.63;6.75;;;16.60;90.20;;;;;;5052232;28;20419;-92
2023/01/01 01:10:21;;;;;;;15.00;6.88;;;16.60;90.20;;;;;;5051573;28;20021;-90
2023/01/01 01:12:47;;;;;;;21.17;7.18;;;16.60;90.20;;;;;;5039079;28;20402;-92
2023/01/01 01:15:13;;;;;;;17.83;6.82;;;16.60;90.20;;;;;;5032851;28;20037;-91
2023/01/01 01:17:40;;;;;;;15.30;6.78;;;16.60;90.20;;;;;;5033393;28;20025;-90
2023/01/01 01:20:06;;;;;;;15.70;6.68;;;16.60;90.20;;;;;;5045190;28;20025;-92
2023/01/01 01:22:35;;;;;;;18.73;6.43;;;16.60;90.30;;;;;;5058065;28;20032;-91
2023/01/01 01:25:01;;;;;;;19.48;7.47;;;16.60;90.30;;;;;;5052800;28;20028;-90
2023/01/01 01:27:26;;;;;;;41.67;9.20;;;16.60;90.40;;;;;;5053637;28;20493;-91
2023/01/01 01:29:52;;;;;;;38.67;9.10;;;16.70;90.50;;;;;;5053250;28;20039;-92
2023/01/01 01:32:18;;;;;;;45.70;9.05;;;16.60;90.50;;;;;;5053293;28;20017;-92
2023/01/01 01:34:44;;;;;;;29.08;8.30;;;16.60;90.40;;;;;;5053435;28;20021;-91
2023/01/01 01:37:10;;;;;;;30.30;8.93;;;16.60;90.40;;;;;;5053355;28;20021;-92
2023/01/01 01:39:37;;;;;;;29.83;8.82;;;16.60;90.40;;;;;;5052746;28;20029;-91
2023/01/01 01:42:03;;;;;;;26.83;7.68;;;16.60;90.40;;;;;;5052181;28;20383;-91
2023/01/01 01:44:49;;;;;;;30.35;7.88;;;16.60;90.40;;;;;;5053206;28;20025;-91
2023/01/01 01:47:32;;;;;;;27.70;8.05;;;16.60;90.40;;;;;;5053213;28;20033;-91
2023/01/01 01:50:05;;;;;;;24.63;7.88;;;16.60;90.50;;;;;;5052735;28;20025;-91
2023/01/01 01:52:33;;;;;;;26.55;7.72;;;16.60;90.50;;;;;;5052954;28;20051;-91
2023/01/01 01:55:01;;;;;;;29.75;7.85;;;16.60;90.50;;;;;;5052838;28;20021;-91
2023/01/01 01:57:27;;;;;;;20.98;7.55;;;16.60;90.50;;;;;;5052858;28;20079;-91
2023/01/01 01:59:55;;;;;;;22.20;7.63;;;16.60;90.50;;;;;;5052393;28;20022;-91
2023/01/01 02:02:59;;;;;;;19.58;7.40;;;16.60;90.50;;;;;;5052932;28;20021;-92
2023/01/01 02:05:26;;;;;;;27.63;7.53;;;16.60;90.50;;;;;;5013061;28;20132;-92
2023/01/01 02:07:54;;;;;;;26.33;8.18;;;16.60;90.50;;;;;;5052877;28;20025;-91
2023/01/01 02:10:20;;;;;;;24.27;7.28;;;16.60;90.50;;;;;;5028546;28;20028;-91
2023/01/01 02:12:46;;;;;;;22.50;7.57;;;16.60;90.50;;;;;;5073091;28;20213;-92
2023/01/01 02:15:11;;;;;;;26.95;8.43;;;16.60;90.60;;;;;;5070493;28;20028;-92
2023/01/01 02:18:06;;;;;;;17.23;6.70;;;16.60;90.60;;;;;;5052880;28;20021;-91
2023/01/01 02:20:55;;;;;;;30.20;7.93;;;16.60;90.60;;;;;;5053233;28;20405;-91
2023/01/01 02:23:48;;;;;;;19.63;7.70;;;16.60;90.60;;;;;;5052108;28;20025;-91
2023/01/01 02:26:24;;;;;;;18.65;7.20;;;16.60;90.60;;;;;;5052588;28;20494;-90
2023/01/01 02:29:06;;;;;;;20.67;8.27;;;16.60;90.60;;;;;;5052204;28;20481;-92
2023/01/01 02:31:40;;;;;;;23.58;7.28;;;16.50;90.60;;;;;;5052371;28;20543;-91
2023/01/01 02:34:10;;;;;;;20.90;7.20;;;16.60;90.70;;;;;;5052540;28;20029;-91
2023/01/01 02:36:40;;;;;;;24.67;7.53;;;16.60;90.70;;;;;;5032594;28;20029;-92
2023/01/01 02:39:08;;;;;;;15.50;6.38;;;16.50;90.70;;;;;;5032301;28;20033;-91
2023/01/01 02:41:45;;;;;;;18.63;7.03;;;16.50;90.70;;;;;;5032039;28;20065;-92
2023/01/01 02:44:12;;;;;;;20.73;6.43;;;16.50;90.70;;;;;;5032484;28;20037;-91
2023/01/01 02:46:37;;;;;;;24.60;8.00;;;16.60;90.80;;;;;;5048984;28;20083;-91
2023/01/01 02:49:04;;;;;;;19.45;7.68;;;16.50;90.70;;;;;;5055328;28;20470;-91
2023/01/01 02:51:46;;;;;;;20.80;7.72;;;16.50;90.70;;;;;;5071138;28;20033;-91
2023/01/01 02:54:25;;;;;;;18.42;7.22;;;16.50;90.70;;;;;;5076069;28;20025;-91
2023/01/01 02:57:09;;;;;;;17.77;6.35;;;16.60;90.80;;;;;;5075976;28;20029;-91
2023/01/01 03:02:41;;;;;;;17.85;6.15;;;16.50;90.80;;;;;;5077065;28;20051;-91
2023/01/01 03:05:23;;;;;;;29.50;8.05;;;16.50;90.80;;;;;;5063996;28;20017;-91
2023/01/01 03:07:58;;;;;;;16.92;6.82;;;16.50;90.80;;;;;;5060901;28;20067;-91
2023/01/01 03:10:54;;;;;;;19.25;7.10;;;16.60;90.90;;;;;;5075317;28;20032;-91
2023/01/01 03:13:31;;;;;;;13.60;6.30;;;16.50;90.80;;;;;;5075394;28;20492;-91
2023/01/01 03:16:00;;;;;;;20.73;7.03;;;16.50;90.90;;;;;;5075724;28;20036;-91
2023/01/01 03:18:49;;;;;;;24.33;7.72;;;16.50;90.90;;;;;;5075626;28;20029;-91
2023/01/01 03:21:18;;;;;;;22.20;7.18;;;16.50;90.90;;;;;;5075145;28;20074;-91
2023/01/01 03:23:48;;;;;;;15.65;6.68;;;16.50;90.90;;;;;;5054598;28;20021;-91
2023/01/01 03:26:16;;;;;;;17.25;7.32;;;16.50;90.90;;;;;;5055769;28;20442;-91
2023/01/01 03:28:56;;;;;;;18.50;7.65;;;16.50;90.90;;;;;;5055530;28;20025;-91
2023/01/01 03:31:24;;;;;;;18.63;7.18;;;16.50;91.00;;;;;;5055240;28;20025;-91
2023/01/01 03:34:17;;;;;;;15.05;7.03;;;16.50;91.10;;;;;;5055482;28;20037;-91
2023/01/01 03:36:47;;;;;;;21.95;6.60;;;16.50;91.10;;;;;;5055319;28;20473;-90
2023/01/01 03:39:23;;;;;;;16.63;7.05;;;16.50;91.10;;;;;;5055342;28;20029;-91
2023/01/01 03:42:01;;;;;;;17.55;7.07;;;16.50;91.10;;;;;;5074771;28;20119;-91
2023/01/01 03:44:42;;;;;;;15.23;6.88;;;16.50;91.20;;;;;;5060185;28;20033;-92
2023/01/01 03:47:07;;;;;;;11.50;6.65;;;16.50;91.20;;;;;;5075545;28;20028;-91
2023/01/01 03:49:33;;;;;;;13.85;6.72;;;16.50;91.20;;;;;;5075153;28;20028;-92
2023/01/01 03:52:35;;;;;;;17.42;7.35;;;16.50;91.20;;;;;;5075150;28;20028;-91
2023/01/01 03:55:33;;;;;;;18.52;6.97;;;16.50;91.20;;;;;;5060814;28;20046;-91
2023/01/01 03:58:24;;;;;;;19.08;6.47;;;16.50;91.30;;;;;;5049977;28;20026;-91
2023/01/01 04:00:57;;;;;;;20.73;6.63;;;16.50;91.30;;;;;;5034482;28;20037;-90
2023/01/01 04:03:25;;;;;;;45.75;8.48;;;16.50;91.40;;;;;;5018178;28;20486;-91
2023/01/01 04:05:51;;;;;;;26.30;7.68;;;16.50;91.50;;;;;;5033456;28;20033;-91
2023/01/01 04:08:17;;;;;;;25.65;7.82;;;16.50;91.50;;;;;;5034633;28;20022;-91
2023/01/01 04:10:47;;;;;;;26.30;8.25;;;16.50;91.50;;;;;;5034430;28;20474;-92
2023/01/01 04:13:13;;;;;;;20.13;7.53;;;16.60;91.50;;;;;;5034671;28;20482;-91
2023/01/01 04:15:38;;;;;;;38.92;8.93;;;16.50;91.50;;;;;;5069122;28;20032;-91
2023/01/01 04:18:04;;;;;;;20.48;9.30;;;16.50;91.50;;;;;;5074246;28;20028;-91
2023/01/01 04:20:30;;;;;;;22.38;9.07;;;16.50;91.50;;;;;;5063475;28;20470;-92
2023/01/01 04:22:57;;;;;;;24.40;8.43;;;16.50;91.50;;;;;;5061234;28;20020;-90
2023/01/01 04:25:23;;;;;;;24.17;9.73;;;16.50;91.50;;;;;;5074542;28;20017;-91
2023/01/01 04:27:49;;;;;;;20.52;8.88;;;16.50;91.50;;;;;;5074624;28;20074;-92
2023/01/01 04:30:15;;;;;;;27.10;10.35;;;16.50;91.50;;;;;;5056612;28;20379;-92
2023/01/01 04:32:41;;;;;;;22.85;9.35;;;16.50;91.50;;;;;;5054066;28;20083;-90
2023/01/01 04:35:08;;;;;;;25.63;10.18;;;16.50;91.50;;;;;;5053852;28;20029;-91
2023/01/01 04:37:37;;;;;;;38.20;10.98;;;16.50;91.50;;;;;;5055819;28;20094;-91
2023/01/01 04:40:04;;;;;;;23.25;9.77;;;16.50;91.50;;;;;;5037491;28;20385;-91
2023/01/01 04:42:29;;;;;;;26.02;10.18;;;16.50;91.50;;;;;;5054216;28;20017;-91
2023/01/01 04:44:55;;;;;;;21.70;9.75;;;16.50;91.50;;;;;;5054698;28;20120;-91
2023/01/01 04:47:21;;;;;;;20.30;9.50;;;16.50;91.50;;;;;;5054275;28;20028;-91
2023/01/01 04:49:46;;;;;;;19.85;9.35;;;16.50;91.50;;;;;;5053558;28;20056;-91
2023/01/01 04:52:12;;;;;;;25.65;10.75;;;16.50;91.50;;;;;;5054592;28;20106;-92
2023/01/01 04:54:38;;;;;;;22.52;9.55;;;16.50;91.60;;;;;;5054283;28;20090;-92
2023/01/01 04:57:03;;;;;;;32.78;10.80;;;16.50;91.60;;;;;;5054170;28;20029;-91
2023/01/01 04:59:29;;;;;;;26.00;10.18;;;16.50;91.70;;;;;;5073478;28;20040;-90
2023/01/01 05:01:55;;;;;;;22.42;10.93;;;16.50;91.60;;;;;;5088046;28;20025;-92
2023/01/01 05:04:21;;;;;;;28.50;11.50;;;16.50;91.60;;;;;;5072557;28;20105;-90
2023/01/01 05:06:46;;;;;;;23.30;9.52;;;16.50;91.60;;;;;;5062810;28;20079;-90
2023/01/01 05:09:12;;;;;;;27.92;9.35;;;16.50;91.50;;;;;;5052147;28;20013;-91
2023/01/01 05:11:38;;;;;;;22.50;9.23;;;16.50;91.50;;;;;;5052139;28;20439;-93
2023/01/01 05:14:04;;;;;;;29.55;10.27;;;16.50;91.60;;;;;;5052553;28;20039;-93
2023/01/01 05:16:36;;;;;;;24.85;9.43;;;16.50;91.60;;;;;;5069213;28;20428;-93
2023/01/01 05:19:02;;;;;;;22.85;8.73;;;16.50;91.70;;;;;;5052583;28;20499;-92
2023/01/01 05:21:31;;;;;;;36.38;10.73;;;16.50;91.70;;;;;;5052247;28;20397;-93
2023/01/01 05:23:59;;;;;;;24.63;10.30;;;16.50;91.70;;;;;;5068921;28;20021;-92
2023/01/01 05:26:28;;;;;;;27.00;8.93;;;16.60;91.80;;;;;;5069079;28;20024;-93
2023/01/01 05:28:54;;;;;;;22.50;8.57;;;16.60;91.80;;;;;;5052346;28;20132;-93
2023/01/01 05:31:22;;;;;;;24.42;9.13;;;16.50;91.70;;;;;;5052131;28;20082;-92
2023/01/01 05:33:49;;;;;;;28.88;9.20;;;16.60;91.80;;;;;;5052393;28;20115;-93
2023/01/01 05:36:17;;;;;;;19.05;8.77;;;16.60;91.80;;;;;;5052207;28;20513;-92
2023/01/01 05:38:43;;;;;;;21.23;8.98;;;16.60;91.70;;;;;;5052097;28;20569;-92
2023/01/01 05:41:13;;;;;;;23.52;10.10;;;16.60;91.70;;;;;;5051882;28;20112;-92
2023/01/01 05:43:38;;;;;;;24.20;9.48;;;16.60;91.80;;;;;;5053701;28;20016;-93
2023/01/01 05:46:11;;;;;;;25.20;8.98;;;16.60;91.70;;;;;;5052249;28;20104;-93
2023/01/01 05:48:37;;;;;;;23.27;8.45;;;16.60;91.80;;;;;;5052055;28;20021;-93
2023/01/01 05:51:09;;;;;;;27.10;8.85;;;16.70;91.80;;;;;;5032526;28;20525;-93
2023/01/01 05:53:34;;;;;;;26.55;9.15;;;16.60;91.80;;;;;;5061528;28;20032;-92
2023/01/01 05:56:00;;;;;;;20.70;9.00;;;16.60;91.70;;;;;;5072266;28;20477;-93
2023/01/01 05:58:28;;;;;;;16.98;7.95;;;16.70;91.80;;;;;;5071961;28;20025;-92
2023/01/01 06:00:54;;;;;;;22.33;9.20;;;16.70;91.80;;;;;;5071580;28;20067;-93
2023/01/01 06:03:20;;;;;;;21.33;8.88;;;16.70;91.80;;;;;;5071960;28;20059;-92
2023/01/01 06:05:45;;;;;;;19.27;8.52;;;16.70;91.80;;;;;;5072003;28;20024;-92
2023/01/01 06:08:11;;;;;;;22.98;9.02;;;16.70;91.70;;;;;;5072056;28;20542;-92
2023/01/01 06:10:37;;;;;;;19.15;9.07;;;16.70;91.70;;;;;;5071685;28;20119;-92
2023/01/01 06:13:03;;;;;;;17.48;7.57;;;16.70;91.60;;;;;;5071733;28;20048;-93
2023/01/01 06:15:29;;;;;;;22.10;8.88;;;16.70;91.50;;;;;;5072329;28;20112;-93
2023/01/01 06:17:54;;;;;;;20.02;8.68;;;16.70;91.50;;;;;;5071898;28;20119;-92
2023/01/01 06:20:20;;;;;;;23.15;9.02;;;16.70;91.70;;;;;;5071636;28;20032;-92
2023/01/01 06:22:46;;;;;;;19.58;8.65;;;16.70;91.70;;;;;;5072106;28;20021;-93
2023/01/01 06:25:12;;;;;;;26.52;9.32;;;16.80;91.60;;;;;;5071884;28;20554;-93
2023/01/01 06:27:37;;;;;;;20.67;8.60;;;16.70;91.70;;;;;;5073157;28;20024;-92
2023/01/01 06:30:04;;;;;;;21.42;9.13;;;16.70;91.60;;;;;;5075568;28;20017;-92
2023/01/01 06:32:31;;;;;;;17.38;8.35;;;16.70;91.70;;;;;;5075672;28;20048;-92
2023/01/01 06:34:57;;;;;;;19.85;9.40;;;16.80;91.70;;;;;;5075935;28;20033;-92
2023/01/01 06:37:22;;;;;;;20.02;9.15;;;16.70;91.60;;;;;;5075730;28;20032;-92
2023/01/01 06:39:48;;;;;;;19.15;9.70;;;16.70;91.90;;;;;;5075356;28;20481;-91
2023/01/01 06:42:14;;;;;;;18.35;9.50;;;16.70;91.50;;;;;;5074952;28;20097;-94
2023/01/01 06:44:39;;;;;;;30.00;9.27;;;16.70;91.60;;;;;;5075306;28;20024;-93
2023/01/01 06:47:05;;;;;;;17.15;7.75;;;16.80;91.60;;;;;;5065314;28;20027;-93
2023/01/01 06:49:31;;;;;;;20.90;8.63;;;16.70;91.60;;;;;;5055054;28;20021;-93
2023/01/01 06:51:56;;;;;;;18.08;8.88;;;16.70;91.60;;;;;;5054871;28;20048;-93
2023/01/01 06:54:22;;;;;;;17.00;8.23;;;16.70;91.60;;;;;;5054862;28;20083;-92
2023/01/01 06:56:48;;;;;;;20.05;9.00;;;16.70;91.60;;;;;;5054841;28;20048;-93
2023/01/01 06:59:15;;;;;;;17.48;8.63;;;16.70;91.60;;;;;;5074203;28;20066;-93
2023/01/01 07:01:41;;;;;;;21.08;8.55;;;16.70;91.60;;;;;;5074659;28;20025;-92
2023/01/01 07:04:11;;;;;;;23.85;8.85;;;16.70;91.60;;;;;;5075202;28;20032;-92
2023/01/01 07:06:37;;;;;;;25.85;9.70;;;16.70;91.60;;;;;;5074867;28;20025;-92
2023/01/01 07:09:04;;;;;;;22.02;8.73;;;16.70;91.70;;;;;;5074688;28;20116;-92
2023/01/01 07:11:30;;;;;;;28.77;9.55;;;16.70;91.70;;;;;;5074603;28;20033;-92
2023/01/01 07:13:55;;;;;;;28.65;10.55;;;16.70;91.80;;;;;;5074735;28;20176;-92
2023/01/01 07:16:22;;;;;;;20.90;8.80;;;16.70;92.10;;;;;;5074626;28;20024;-92
2023/01/01 07:18:49;;;;;;;21.95;8.75;;;16.70;92.20;;;;;;5074586;28;20050;-93
2023/01/01 07:21:43;;;;;;;30.30;10.13;;;16.70;92.00;;;;;;5056736;28;20029;-93
2023/01/01 07:24:11;;;;;;;33.47;10.38;;;16.70;91.90;;;;;;5070552;28;20115;-90
2023/01/01 07:26:37;;;;;;;26.20;9.40;;;16.70;91.80;;;;;;5073121;28;20420;-92
2023/01/01 07:29:03;;;;;;;21.10;9.38;;;16.70;91.70;;;;;;5073525;28;20020;-91
2023/01/01 07:31:28;;;;;;;19.17;8.98;;;16.70;91.70;;;;;;5065187;28;20497;-92
2023/01/01 07:33:54;;;;;;;21.33;10.02;;;16.70;91.70;;;;;;5054460;28;20035;-92
2023/01/01 07:36:19;;;;;;;16.33;9.15;;;16.70;91.60;;;;;;5054742;28;20036;-92
2023/01/01 07:38:45;;;;;;;23.60;9.65;;;16.70;91.60;;;;;;5052803;28;20397;-93
2023/01/01 07:41:11;;;;;;;16.73;8.10;;;16.70;91.50;;;;;;5054017;28;20029;-94
2023/01/01 07:43:39;;;;;;;20.80;9.18;;;16.80;91.50;;;;;;5054129;28;20032;-93
2023/01/01 07:46:05;;;;;;;24.27;9.27;;;16.80;91.50;;;;;;5054409;28;20112;-93
2023/01/01 07:48:31;;;;;;;20.95;9.00;;;16.80;91.40;;;;;;5054489;28;20117;-93
2023/01/01 07:50:56;;;;;;;22.52;9.40;;;16.90;91.30;;;;;;5054123;28;20044;-92
2023/01/01 07:53:22;;;;;;;22.52;9.38;;;16.90;91.20;;;;;;5054383;28;20025;-92
2023/01/01 07:55:47;;;;;;;18.20;8.65;;;16.90;91.20;;;;;;5053735;28;20025;-93
2023/01/01 07:58:13;;;;;;;20.60;8.63;;;16.90;91.10;;;;;;5053873;28;20021;-90
2023/01/01 08:00:39;;;;;;;18.83;9.05;;;16.90;91.10;;;;;;5054047;28;20021;-92
2023/01/01 08:03:05;;;;;;;16.27;8.00;;;16.90;91.20;;;;;;5056541;28;20115;-92
2023/01/01 08:05:32;;;;;;;20.80;8.63;;;17.00;91.10;;;;;;5033484;28;20014;-92
2023/01/01 08:07:58;;;;;;;29.05;9.43;;;17.10;91.10;;;;;;5033134;28;20075;-92
2023/01/01 08:10:24;;;;;;;26.38;8.68;;;17.10;91.00;;;;;;5044150;28;21769;-92
2023/01/01 08:12:50;;;;;;;19.48;9.40;;;17.10;91.10;;;;;;5042608;28;20593;-91
2023/01/01 08:15:15;;;;;;;21.60;8.07;;;17.10;91.00;;;;;;5034232;28;20041;-91
2023/01/01 08:17:41;;;;;;;28.10;9.35;;;17.20;90.90;;;;;;5034056;28;20022;-92
2023/01/01 08:20:08;;;;;;;21.20;8.15;;;17.10;90.80;;;;;;5034221;28;20029;-91
2023/01/01 08:22:34;;;;;;;22.83;8.13;;;17.20;90.80;;;;;;5034250;28;20022;-91
2023/01/01 08:24:59;;;;;;;27.13;9.15;;;17.20;90.60;;;;;;5033632;28;20028;-92
2023/01/01 08:27:25;;;;;;;18.05;8.07;;;17.30;90.50;;;;;;5033742;28;20030;-92
2023/01/01 08:29:51;;;;;;;32.28;7.90;;;17.30;90.50;;;;;;5034771;28;20025;-92
2023/01/01 08:32:16;;;;;;;19.83;9.13;;;17.30;90.60;;;;;;5040528;28;20033;-92
2023/01/01 08:34:42;;;;;;;16.58;7.65;;;17.30;90.60;;;;;;5033497;28;20027;-90
2023/01/01 08:37:12;;;;;;;18.40;8.63;;;17.30;90.70;;;;;;5049355;28;20030;-91
2023/01/01 08:39:38;;;;;;;;;;;17.30;90.70;;;;;;5033463;28;20429;-92
2023/01/01 08:42:03;;;;;;;17.30;7.85;;;17.20;90.70;;;;;;5033810;28;19958;-92
2023/01/01 08:44:29;;;;;;;13.77;7.38;;;17.20;90.80;;;;;;5055131;28;20442;-91
2023/01/01 08:46:54;;;;;;;13.75;7.43;;;17.20;90.80;;;;;;5074703;28;20025;-91
2023/01/01 08:49:20;;;;;;;22.80;8.55;;;17.20;90.80;;;;;;5073135;28;20112;-89
2023/01/01 08:51:46;;;;;;;18.15;8.32;;;17.20;90.90;;;;;;5072867;28;20397;-90
2023/01/01 08:54:11;;;;;;;17.92;7.28;;;17.20;91.20;;;;;;5072867;28;20035;-90
2023/01/01 08:56:37;;;;;;;17.00;7.50;;;17.30;90.90;;;;;;5072962;28;20035;-89
2023/01/01 08:59:03;;;;;;;20.20;8.15;;;17.30;90.90;;;;;;5053581;28;20037;-89
2023/01/01 09:01:29;;;;;;;20.15;8.40;;;17.30;90.90;;;;;;5053552;28;20061;-89
2023/01/01 09:03:54;;;;;;;17.83;7.55;;;17.30;90.90;;;;;;5053962;28;20079;-89
2023/01/01 09:06:20;;;;;;;18.33;7.82;;;17.30;90.90;;;;;;5054717;28;20385;-89
2023/01/01 09:08:46;;;;;;;13.57;7.07;;;17.30;90.90;;;;;;5053300;28;20408;-90
2023/01/01 09:11:32;;;;;;;19.20;7.55;;;17.30;90.90;;;;;;5063842;28;20071;-89
2023/01/01 09:13:57;;;;;;;12.98;6.70;;;17.30;90.90;;;;;;5072705;28;20044;-90
2023/01/01 09:16:23;;;;;;;14.80;7.35;;;17.30;90.90;;;;;;5072801;28;20500;-89
2023/01/01 09:18:49;;;;;;;12.68;7.07;;;17.30;90.90;;;;;;5072746;28;20081;-89
2023/01/01 09:21:15;;;;;;;12.43;7.60;;;17.30;90.90;;;;;;5072271;28;20543;-89
2023/01/01 09:23:40;;;;;;;15.70;7.03;;;17.30;90.90;;;;;;5073910;28;20029;-89
2023/01/01 09:26:08;;;;;;;15.32;7.63;;;17.40;90.90;;;;;;5072682;28;20162;-89
2023/01/01 09:28:35;;;;;;;13.48;7.65;;;17.30;90.90;;;;;;5072614;28;20024;-88
2023/01/01 09:31:01;;;;;;;11.52;7.00;;;17.30;90.90;;;;;;5072333;28;20028;-89
2023/01/01 09:33:27;;;;;;;14.85;7.70;;;17.30;90.90;;;;;;5072795;28;20060;-90
2023/01/01 09:35:53;;;;;;;15.70;7.15;;;17.40;90.90;;;;;;5074717;28;20487;-89
2023/01/01 09:38:19;;;;;;;13.10;6.20;;;17.30;90.90;;;;;;5075126;28;20111;-88
2023/01/01 09:41:17;;;;;;;12.93;6.78;;;17.30;91.20;;;;;;5052747;28;20438;-89
2023/01/01 09:43:49;;;;;;;12.23;6.63;;;17.40;90.90;;;;;;5033066;28;20111;-89
2023/01/01 09:46:15;;;;;;;14.95;7.07;;;17.40;90.90;;;;;;5056657;28;20092;-88
2023/01/01 09:48:50;;;;;;;11.35;7.07;;;17.40;90.90;;;;;;5051665;28;20057;-88
2023/01/01 09:51:18;;;;;;;18.40;7.45;;;17.40;90.90;;;;;;5051675;28;20048;-89
2023/01/01 09:53:58;;;;;;;14.15;6.88;;;17.40;90.90;;;;;;5057382;28;20116;-92
2023/01/01 09:56:29;;;;;;;14.23;6.53;;;17.40;90.90;;;;;;5059446;28;20021;-92
2023/01/01 09:58:58;;;;;;;13.40;7.07;;;17.40;90.90;;;;;;5043023;28;20033;-92
2023/01/01 10:01:48;;;;;;;14.30;6.40;;;17.40;90.90;;;;;;5053757;28;20029;-92
2023/01/01 10:04:44;;;;;;;12.43;6.50;;;17.40;90.90;;;;;;5061495;28;20021;-93
2023/01/01 10:07:25;;;;;;;12.48;7.07;;;17.50;90.90;;;;;;5043662;28;20029;-92
2023/01/01 10:10:03;;;;;;;12.60;5.90;;;17.40;90.90;;;;;;5072891;28;20024;-93
2023/01/01 10:12:31;;;;;;;13.27;6.57;;;17.40;90.90;;;;;;5081232;28;20025;-93
2023/01/01 10:15:14;;;;;;;15.85;6.32;;;17.50;90.90;;;;;;5083006;28;20435;-92
2023/01/01 10:17:45;;;;;;;12.15;6.22;;;17.50;90.90;;;;;;5083339;28;20017;-93
2023/01/01 10:20:37;;;;;;;13.70;6.55;;;17.50;91.20;;;;;;5072085;28;20119;-92
2023/01/01 10:23:15;;;;;;;13.13;7.47;;;17.50;90.90;;;;;;5080560;28;20542;-92
2023/01/01 10:25:42;;;;;;;12.05;6.63;;;17.50;90.90;;;;;;5058603;28;20032;-92
2023/01/01 10:28:48;;;;;;;12.57;6.68;;;17.50;90.90;;;;;;5046148;28;20017;-92
2023/01/01 10:31:17;;;;;;;12.95;6.20;;;17.50;90.80;;;;;;5060384;28;20025;-89
2023/01/01 10:33:44;;;;;;;12.65;6.25;;;17.50;90.80;;;;;;5060257;28;20017;-90
2023/01/01 10:36:13;;;;;;;14.30;8.18;;;17.50;90.80;;;;;;5076636;28;20566;-89
2023/01/01 10:38:39;;;;;;;14.18;6.03;;;17.60;90.90;;;;;;5063270;28;20063;-90
2023/01/01 10:41:09;;;;;;;9.40;5.60;;;17.60;90.90;;;;;;5062527;28;20078;-90
2023/01/01 10:43:36;;;;;;;12.15;6.20;;;17.60;90.80;;;;;;5075410;28;20099;-89
2023/01/01 10:46:02;;;;;;;12.88;6.63;;;17.60;90.80;;;;;;5058262;28;20500;-90
2023/01/01 10:48:30;;;;;;;14.00;6.07;;;17.60;90.80;;;;;;5051303;28;20026;-92
2023/01/01 10:50:58;;;;;;;11.75;6.60;;;17.60;90.80;;;;;;5073410;28;20017;-92
2023/01/01 10:53:40;;;;;;;11.98;6.00;;;17.60;90.90;;;;;;5075051;28;20033;-93
2023/01/01 10:56:12;;;;;;;10.88;6.03;;;17.60;90.80;;;;;;5082595;28;20046;-92
2023/01/01 10:58:47;;;;;;;16.00;6.45;;;17.60;90.80;;;;;;5073868;28;20040;-92
2023/01/01 11:01:16;;;;;;;10.10;5.70;;;17.60;90.80;;;;;;5074326;28;20032;-92
2023/01/01 11:04:18;;;;;;;12.07;6.18;;;17.60;90.80;;;;;;5066059;28;20025;-93
2023/01/01 11:06:46;;;;;;;11.05;5.80;;;17.70;90.80;;;;;;5060889;28;20058;-92
2023/01/01 11:09:24;;;;;;;9.27;5.78;;;17.60;90.80;;;;;;5070012;28;20016;-93
2023/01/01 11:12:00;;;;;;;10.40;5.88;;;17.70;90.80;;;;;;5067733;28;20274;-92
2023/01/01 11:14:28;;;;;;;10.75;5.78;;;17.60;90.70;;;;;;5062086;28;20033;-93
2023/01/01 11:16:55;;;;;;;14.88;5.78;;;17.70;90.80;;;;;;5081644;28;20024;-93
2023/01/01 11:19:32;;;;;;;10.77;5.63;;;17.70;90.80;;;;;;5083142;28;20062;-91
2023/01/01 11:21:59;;;;;;;10.48;5.85;;;17.70;91.10;;;;;;5072439;28;20022;-91
2023/01/01 11:24:32;;;;;;;11.10;5.45;;;17.70;90.70;;;;;;5079310;28;20042;-92
2023/01/01 11:27:19;;;;;;;11.93;5.65;;;17.70;90.70;;;;;;5050539;28;20383;-93
2023/01/01 11:29:45;;;;;;;9.48;5.32;;;17.70;90.70;;;;;;5057959;28;20488;-93
2023/01/01 11:32:22;;;;;;;8.32;4.80;;;17.80;90.70;;;;;;5051899;28;20063;-94
2023/01/01 11:35:00;;;;;;;8.65;5.53;;;17.80;90.80;;;;;;5066396;28;20086;-92
2023/01/01 11:37:27;;;;;;;8.18;5.28;;;17.80;90.80;;;;;;5075252;28;20032;-93
2023/01/01 11:39:56;;;;;;;8.77;5.55;;;17.80;90.80;;;;;;5082119;28;20024;-92
2023/01/01 11:42:32;;;;;;;10.70;5.32;;;17.80;90.70;;;;;;5076552;28;20025;-92
2023/01/01 11:45:01;;;;;;;10.18;5.57;;;17.80;90.70;;;;;;5082248;28;20028;-93
2023/01/01 11:47:37;;;;;;;7.43;4.93;;;17.80;90.70;;;;;;5083661;28;20124;-92
2023/01/01 11:50:28;;;;;;;10.60;4.53;;;17.80;90.70;;;;;;5042591;28;20029;-92
2023/01/01 11:52:59;;;;;;;9.05;5.50;;;17.80;90.70;;;;;;5057613;28;20017;-93
2023/01/01 11:55:36;;;;;;;;;;;17.90;90.70;;;;;;5064884;28;20077;-92
2023/01/01 11:58:05;;;;;;;8.95;4.90;;;17.80;90.70;;;;;;5065378;28;19927;-92
2023/01/01 12:00:34;;;;;;;11.43;5.15;;;17.90;90.70;;;;;;5061962;28;20017;-92
2023/01/01 12:03:09;;;;;;;11.50;5.68;;;17.90;90.70;;;;;;5070459;28;20029;-93
2023/01/01 12:05:49;;;;;;;9.25;4.95;;;17.90;90.70;;;;;;5068535;28;20024;-92
2023/01/01 12:08:25;;;;;;;8.27;4.85;;;18.00;90.70;;;;;;5070808;28;20116;-92
2023/01/01 12:10:58;;;;;;;11.75;5.70;;;18.00;90.70;;;;;;5070962;28;20055;-92
2023/01/01 12:13:29;;;;;;;8.13;5.20;;;18.00;90.70;;;;;;5056387;28;20030;-92
2023/01/01 12:16:22;;;;;;;10.07;5.32;;;18.00;90.70;;;;;;5063422;28;20031;-92
2023/01/01 12:19:14;;;;;;;10.52;5.57;;;18.00;90.70;;;;;;5068481;28;20055;-90
2023/01/01 12:21:41;;;;;;;6.72;4.68;;;18.00;90.70;;;;;;5080464;28;20021;-90
2023/01/01 12:24:11;;;;;;;10.18;5.18;;;18.00;90.70;;;;;;5044367;28;20064;-90
2023/01/01 12:26:39;;;;;;;9.55;4.93;;;18.10;90.70;;;;;;5067253;28;20024;-90
2023/01/01 12:29:30;;;;;;;10.18;4.97;;;18.10;90.70;;;;;;5068359;28;20025;-91
2023/01/01 12:32:32;;;;;;;7.80;4.60;;;18.10;90.60;;;;;;5063582;28;20024;-90
2023/01/01 12:35:35;;;;;;;6.95;4.30;;;18.10;90.60;;;;;;5067156;28;20025;-90
2023/01/01 12:38:13;;;;;;;10.98;4.95;;;18.10;90.60;;;;;;5047031;28;20055;-90
2023/01/01 12:41:01;;;;;;;8.02;4.57;;;18.10;90.60;;;;;;5074687;28;20028;-91
2023/01/01 12:43:51;;;;;;;6.72;4.45;;;18.10;90.60;;;;;;5077249;28;20020;-92
2023/01/01 12:46:40;;;;;;;9.43;4.78;;;18.20;90.60;;;;;;5075659;28;20025;-93
2023/01/01 12:49:20;;;;;;;7.13;4.55;;;18.20;90.60;;;;;;5078807;28;20028;-91
2023/01/01 12:51:58;;;;;;;9.27;4.53;;;18.20;90.60;;;;;;5087144;28;20028;-91
2023/01/01 12:54:38;;;;;;;8.23;4.70;;;18.20;90.60;;;;;;5080496;28;20033;-91
2023/01/01 12:57:09;;;;;;;6.10;4.35;;;18.20;90.60;;;;;;5076957;28;20035;-92
2023/01/01 12:59:39;;;;;;;6.53;4.63;;;18.30;90.60;;;;;;5078524;28;20051;-92
2023/01/01 13:02:18;;;;;;;8.38;5.13;;;18.30;90.60;;;;;;5067637;28;20021;-93